HSNN

Nyala Airport

Nyala, Sudan
METAR HSNN 211300Z 11004KT CAVOK 39/07 Q1006
Observed Flight Rules
Feb-21 @ 13:00 UTC (20 minutes ago) Visual Flight Rules
Wind Visibility Clouds
110° at 4 knots 10,000+ meters
  • Clear skies
Temperatures Readings
Current 39°C / 102°F
Dewpoint 7°C / 45°F
Humidity 14%
Altimeter 29.7" Hg
Pressure 1006 hPa
Elevation 658
METAR HSNN 211300Z 11004KT CAVOK 39/07 Q1006
Observed Flight Rules
Feb-21 @ 13:00 UTC
(20 minutes ago)
VFR
Wind Visibility
110° at 4 knots 10,000+ meters
Clouds
  • Clear skies
Temperature Dewpoint
39°C / 102°F 7°C / 45°F
Humidity Altimeter Pressure
14% 29.7" Hg 1006 hPa